createdAt,value
2022-07-27T00:01:50.546Z,101186.88
2022-07-27T00:04:18.708Z,101184.38
2022-07-27T00:06:45.520Z,101186.56
2022-07-27T00:09:12.411Z,101180.50
2022-07-27T00:11:39.109Z,101184.00
2022-07-27T00:14:05.727Z,101187.63
2022-07-27T00:16:32.611Z,101187.75
2022-07-27T00:18:59.134Z,101188.81
2022-07-27T00:21:26.659Z,101184.66
2022-07-27T00:23:54.455Z,101186.38
2022-07-27T00:26:21.312Z,101194.16
2022-07-27T00:28:48.704Z,101190.97
2022-07-27T00:31:15.518Z,101196.66
2022-07-27T00:33:42.103Z,101195.66
2022-07-27T00:36:08.915Z,101189.53
2022-07-27T00:38:35.400Z,101189.66
2022-07-27T00:41:01.942Z,101188.88
2022-07-27T00:43:28.459Z,101189.47
2022-07-27T00:45:54.951Z,101186.63
2022-07-27T00:48:21.445Z,101192.28
2022-07-27T00:50:48.479Z,101195.00
2022-07-27T00:53:15.548Z,101190.00
2022-07-27T00:55:42.552Z,101190.03
2022-07-27T00:58:09.232Z,101188.06
2022-07-27T01:00:37.883Z,101186.22
2022-07-27T01:03:08.595Z,101186.22
2022-07-27T01:05:40.036Z,101183.97
2022-07-27T01:08:12.479Z,101193.28
2022-07-27T01:10:43.414Z,101189.66
2022-07-27T01:13:13.090Z,101195.34
2022-07-27T01:15:40.814Z,101186.88
2022-07-27T01:18:11.825Z,101193.47
2022-07-27T01:20:40.991Z,101186.44
2022-07-27T01:23:07.459Z,101193.34
2022-07-27T01:25:33.922Z,101190.84
2022-07-27T01:28:00.383Z,101184.03
2022-07-27T01:30:26.972Z,101181.03
2022-07-27T01:33:01.568Z,101190.31
2022-07-27T01:35:28.418Z,101187.59
2022-07-27T01:37:54.951Z,101191.03
2022-07-27T01:40:22.499Z,101183.09
2022-07-27T01:42:49.323Z,101185.69
2022-07-27T01:45:15.819Z,101178.94
2022-07-27T01:47:42.373Z,101180.97
2022-07-27T01:50:09.313Z,101180.16
2022-07-27T01:52:35.781Z,101175.88
2022-07-27T01:55:02.273Z,101173.28
2022-07-27T01:57:28.802Z,101174.97
2022-07-27T01:59:55.275Z,101183.81
2022-07-27T02:02:21.761Z,101186.69
2022-07-27T02:04:48.349Z,101179.91
2022-07-27T02:07:14.993Z,101184.22
2022-07-27T02:09:41.450Z,101180.63
2022-07-27T02:12:27.021Z,101177.22
2022-07-27T02:14:53.474Z,101186.38
2022-07-27T02:17:21.342Z,101190.22
2022-07-27T02:19:48.582Z,101193.81
2022-07-27T02:22:15.095Z,101190.03
2022-07-27T02:24:41.591Z,101193.47
2022-07-27T02:27:08.175Z,101178.66
2022-07-27T02:29:34.728Z,101190.94
2022-07-27T02:32:01.776Z,101173.56
2022-07-27T02:34:28.245Z,101175.56
2022-07-27T02:36:54.695Z,101176.31
2022-07-27T02:39:21.321Z,101166.84
2022-07-27T02:41:49.212Z,101175.91
2022-07-27T02:44:17.288Z,101175.84
2022-07-27T02:46:44.348Z,101179.84
2022-07-27T02:49:11.249Z,101182.53
2022-07-27T02:51:39.531Z,101178.19
2022-07-27T02:54:07.562Z,101183.41
2022-07-27T02:56:34.111Z,101184.38
2022-07-27T02:59:00.716Z,101181.75
2022-07-27T03:01:27.226Z,101187.13
2022-07-27T03:03:53.875Z,101177.16
2022-07-27T03:06:20.516Z,101176.22
2022-07-27T03:08:47.317Z,101177.22
2022-07-27T03:11:15.976Z,101191.16
2022-07-27T03:13:42.480Z,101189.53
2022-07-27T03:16:09.034Z,101186.22
2022-07-27T03:18:35.579Z,101194.06
2022-07-27T03:21:02.058Z,101190.88
2022-07-27T03:23:28.503Z,101181.09
2022-07-27T03:25:54.986Z,101188.94
2022-07-27T03:28:21.521Z,101189.00
2022-07-27T03:30:47.979Z,101188.31
2022-07-27T03:33:14.476Z,101185.53
2022-07-27T03:35:40.936Z,101188.22
2022-07-27T03:38:07.394Z,101180.41
2022-07-27T03:40:38.085Z,101186.09
2022-07-27T03:43:04.597Z,101185.44
2022-07-27T03:45:31.120Z,101197.84
2022-07-27T03:47:57.596Z,101202.72
2022-07-27T03:50:24.191Z,101199.16
2022-07-27T03:52:51.115Z,101191.75
2022-07-27T03:55:18.402Z,101193.03
2022-07-27T03:57:44.877Z,101199.81
2022-07-27T04:00:15.756Z,101202.72
2022-07-27T04:02:42.373Z,101200.34
2022-07-27T04:05:09.838Z,101211.94
2022-07-27T04:07:36.443Z,101211.72
2022-07-27T04:10:04.186Z,101208.84
2022-07-27T04:12:30.736Z,101203.47
2022-07-27T04:14:58.553Z,101210.41
2022-07-27T04:17:55.603Z,101213.06
2022-07-27T04:20:11.707Z,101224.41
2022-07-27T04:22:38.240Z,101225.31
2022-07-27T04:25:05.613Z,101228.16
2022-07-27T04:27:32.238Z,101221.75
2022-07-27T04:29:58.760Z,101217.44
2022-07-27T04:32:25.279Z,101222.06
2022-07-27T04:34:51.755Z,101214.97
2022-07-27T04:37:18.226Z,101222.66
2022-07-27T04:39:44.671Z,101226.09
2022-07-27T04:42:11.124Z,101221.59
2022-07-27T04:44:37.610Z,101227.66
2022-07-27T04:47:04.111Z,101229.56
2022-07-27T04:49:30.717Z,101235.81
2022-07-27T04:51:57.343Z,101228.91
2022-07-27T04:54:23.832Z,101227.16
2022-07-27T04:56:50.602Z,101216.84
2022-07-27T04:59:17.146Z,101227.38
2022-07-27T05:01:43.705Z,101232.63
2022-07-27T05:04:10.346Z,101224.69
2022-07-27T05:06:36.957Z,101233.16
2022-07-27T05:09:04.013Z,101234.94
2022-07-27T05:11:30.562Z,101240.13
2022-07-27T05:13:57.110Z,101241.09
2022-07-27T05:16:28.339Z,101241.09
2022-07-27T05:18:55.398Z,101245.59
2022-07-27T05:21:21.908Z,101248.03
2022-07-27T05:23:48.535Z,101240.91
2022-07-27T05:26:14.984Z,101243.50
2022-07-27T05:28:41.508Z,101238.94
2022-07-27T05:31:08.011Z,101238.91
2022-07-27T05:33:34.696Z,101246.00
2022-07-27T05:36:01.183Z,101251.16
2022-07-27T05:38:28.357Z,101253.66
2022-07-27T05:40:54.846Z,101256.19
2022-07-27T05:43:21.320Z,101258.75
2022-07-27T05:45:48.079Z,101256.19
2022-07-27T05:48:14.607Z,101259.59
2022-07-27T05:50:41.137Z,101266.66
2022-07-27T05:53:07.636Z,101265.00
2022-07-27T05:55:34.126Z,101262.94
2022-07-27T05:58:00.707Z,101275.81
2022-07-27T06:00:27.336Z,101276.69
2022-07-27T06:02:54.544Z,101277.59
2022-07-27T06:05:21.130Z,101278.56
2022-07-27T06:07:59.704Z,101284.84
2022-07-27T06:10:28.276Z,101272.47
2022-07-27T06:12:54.860Z,101282.75
2022-07-27T06:15:21.568Z,101276.47
2022-07-27T06:17:49.425Z,101271.81
2022-07-27T06:20:16.084Z,101276.09
2022-07-27T06:22:46.751Z,101278.75
2022-07-27T06:25:13.396Z,101285.69
2022-07-27T06:27:40.062Z,101280.34
2022-07-27T06:30:07.183Z,101284.66
2022-07-27T06:32:33.708Z,101295.22
2022-07-27T06:35:04.062Z,101289.94
2022-07-27T06:37:31.240Z,101283.75
2022-07-27T06:39:59.021Z,101274.81
2022-07-27T06:42:25.509Z,101275.53
2022-07-27T06:44:52.141Z,101277.19
2022-07-27T06:47:18.681Z,101282.41
2022-07-27T06:49:45.290Z,101277.84
2022-07-27T06:52:11.770Z,101276.84
2022-07-27T06:54:38.244Z,101282.84
2022-07-27T06:57:05.138Z,101280.31
2022-07-27T06:59:43.506Z,101288.28
2022-07-27T07:02:10.479Z,101291.56
2022-07-27T07:04:37.150Z,101287.00
2022-07-27T07:07:07.256Z,101279.13
2022-07-27T07:09:34.596Z,101292.34
2022-07-27T07:12:02.412Z,101290.53
2022-07-27T07:14:29.177Z,101279.97
2022-07-27T07:16:55.649Z,101281.72
2022-07-27T07:19:22.455Z,101287.91
2022-07-27T07:21:48.975Z,101291.34
2022-07-27T07:24:15.522Z,101292.97
2022-07-27T07:26:42.069Z,101299.94
2022-07-27T07:29:09.379Z,101299.94
2022-07-27T07:31:36.215Z,101306.19
2022-07-27T07:34:02.819Z,101310.41
2022-07-27T07:36:29.337Z,101309.44
2022-07-27T07:38:55.842Z,101304.91
2022-07-27T07:41:25.159Z,101295.00
2022-07-27T07:43:51.663Z,101299.50
2022-07-27T07:46:18.634Z,101306.69
2022-07-27T07:48:45.280Z,101305.81
2022-07-27T07:51:12.264Z,101298.72
2022-07-27T07:53:41.556Z,101293.44
2022-07-27T07:56:08.906Z,101292.47
2022-07-27T07:58:35.474Z,101288.91
2022-07-27T08:01:01.992Z,101293.25
2022-07-27T08:03:28.600Z,101300.19
2022-07-27T08:05:55.162Z,101300.16
2022-07-27T08:08:24.335Z,101298.25
2022-07-27T08:10:51.583Z,101298.94
2022-07-27T08:13:22.177Z,101298.84
2022-07-27T08:15:48.867Z,101293.41
2022-07-27T08:18:15.441Z,101301.09
2022-07-27T08:20:41.934Z,101302.41
2022-07-27T08:23:08.444Z,101318.84
2022-07-27T08:25:34.949Z,101308.06
2022-07-27T08:28:02.590Z,101310.75
2022-07-27T08:30:32.177Z,101304.78
2022-07-27T08:33:01.276Z,101310.75
2022-07-27T08:35:29.958Z,101298.34
2022-07-27T08:37:57.133Z,101300.66
2022-07-27T08:40:42.844Z,101293.47
2022-07-27T08:43:12.169Z,101297.44
2022-07-27T08:45:41.499Z,101305.75
2022-07-27T08:48:12.692Z,101314.28
2022-07-27T08:50:40.421Z,101308.97
2022-07-27T08:53:09.727Z,101314.94
2022-07-27T08:55:38.921Z,101307.13
2022-07-27T08:58:07.139Z,101316.72
2022-07-27T09:00:35.261Z,101305.03
2022-07-27T09:03:03.128Z,101300.66
2022-07-27T09:05:37.415Z,101308.53
2022-07-27T09:08:11.943Z,101303.81
2022-07-27T09:10:39.065Z,101301.81
2022-07-27T09:13:34.228Z,101300.09
2022-07-27T09:16:22.198Z,101303.53
2022-07-27T09:18:58.471Z,101302.47
2022-07-27T09:21:25.072Z,101305.00
2022-07-27T09:23:56.337Z,101307.69
2022-07-27T09:26:33.638Z,101311.44
2022-07-27T09:29:08.084Z,101306.19
2022-07-27T09:31:49.027Z,101308.97
2022-07-27T09:34:37.410Z,101312.63
2022-07-27T09:37:06.409Z,101308.38
2022-07-27T09:39:33.266Z,101315.59
2022-07-27T09:42:02.378Z,101313.69
2022-07-27T09:44:43.953Z,101310.88
2022-07-27T09:47:27.141Z,101309.19
2022-07-27T09:49:58.722Z,101300.72
2022-07-27T09:52:30.564Z,101300.94
2022-07-27T09:55:05.584Z,101300.13
2022-07-27T09:57:54.272Z,101299.91
2022-07-27T10:00:23.251Z,101290.78
2022-07-27T10:02:52.636Z,101288.31
2022-07-27T10:05:21.481Z,101288.75
2022-07-27T10:07:49.097Z,101296.06
2022-07-27T10:10:16.192Z,101297.31
2022-07-27T10:12:51.950Z,101299.72
2022-07-27T10:15:21.028Z,101302.34
2022-07-27T10:17:50.541Z,101306.94
2022-07-27T10:20:18.668Z,101313.81
2022-07-27T10:22:59.007Z,101311.06
2022-07-27T10:25:32.572Z,101310.69
2022-07-27T10:28:10.569Z,101318.00
2022-07-27T10:30:37.743Z,101320.63
2022-07-27T10:33:43.884Z,101313.53
2022-07-27T10:36:23.481Z,101319.69
2022-07-27T10:38:53.105Z,101318.84
2022-07-27T10:41:25.184Z,101315.69
2022-07-27T10:44:17.701Z,101313.84
2022-07-27T10:47:00.162Z,101308.59
2022-07-27T10:49:40.266Z,101305.69
2022-07-27T10:52:41.626Z,101313.09
2022-07-27T10:55:08.836Z,101303.84
2022-07-27T10:57:38.131Z,101308.69
2022-07-27T11:00:11.037Z,101319.44
2022-07-27T11:02:42.605Z,101310.63
2022-07-27T11:05:32.895Z,101314.69
2022-07-27T11:08:35.561Z,101312.59
2022-07-27T11:10:45.809Z,101315.47
2022-07-27T11:13:13.147Z,101306.66
2022-07-27T11:15:39.665Z,101305.66
2022-07-27T11:18:06.307Z,101317.22
2022-07-27T11:20:32.952Z,101311.41
2022-07-27T11:23:48.812Z,101311.63
2022-07-27T11:26:02.197Z,101304.31
2022-07-27T11:28:33.101Z,101299.78
2022-07-27T11:31:03.448Z,101291.75
2022-07-27T11:33:30.960Z,101292.41
2022-07-27T11:36:03.660Z,101286.69
2022-07-27T11:38:30.364Z,101287.66
2022-07-27T11:41:08.043Z,101276.00
2022-07-27T11:43:45.670Z,101279.53
2022-07-27T11:46:22.867Z,101278.78
2022-07-27T11:49:06.026Z,101274.72
2022-07-27T11:51:39.273Z,101263.53
2022-07-27T11:54:08.983Z,101265.19
2022-07-27T11:56:38.167Z,101265.63
2022-07-27T11:59:14.201Z,101263.56
2022-07-27T12:01:42.689Z,101255.34
2022-07-27T12:04:24.103Z,101254.28
2022-07-27T12:07:03.260Z,101257.13
2022-07-27T12:09:38.085Z,101251.25
2022-07-27T12:12:22.882Z,101246.56
2022-07-27T12:14:54.277Z,101253.06
2022-07-27T12:17:36.652Z,101246.84
2022-07-27T12:20:06.428Z,101251.38
2022-07-27T12:22:39.654Z,101247.84
2022-07-27T12:25:29.927Z,101256.09
2022-07-27T12:27:59.251Z,101256.34
2022-07-27T12:30:48.098Z,101257.88
2022-07-27T12:33:28.204Z,101254.03
2022-07-27T12:35:55.584Z,101250.50
2022-07-27T12:38:22.544Z,101255.97
2022-07-27T12:41:00.202Z,101254.81
2022-07-27T12:43:27.232Z,101254.56
2022-07-27T12:45:54.985Z,101237.69
2022-07-27T12:48:41.369Z,101236.34
2022-07-27T12:51:09.947Z,101231.75
2022-07-27T12:53:37.917Z,101228.66
2022-07-27T12:56:08.060Z,101222.53
2022-07-27T12:58:34.968Z,101226.44
2022-07-27T13:01:01.812Z,101239.31
2022-07-27T13:03:28.545Z,101230.72
2022-07-27T13:05:55.266Z,101238.09
2022-07-27T13:08:22.521Z,101234.34
2022-07-27T13:10:52.108Z,101236.13
2022-07-27T13:13:24.062Z,101227.31
2022-07-27T13:15:50.580Z,101234.97
2022-07-27T13:18:22.886Z,101231.78
2022-07-27T13:20:50.275Z,101235.38
2022-07-27T13:23:16.932Z,101229.44
2022-07-27T13:25:43.683Z,101234.00
2022-07-27T13:28:10.437Z,101231.28
2022-07-27T13:30:36.971Z,101248.91
2022-07-27T13:33:03.653Z,101246.84
2022-07-27T13:35:30.935Z,101240.88
2022-07-27T13:37:57.429Z,101245.63
2022-07-27T13:40:24.021Z,101238.75
2022-07-27T13:42:50.559Z,101246.34
2022-07-27T13:45:17.106Z,101249.19
2022-07-27T13:47:43.576Z,101240.13
2022-07-27T13:50:18.293Z,101244.63
2022-07-27T13:52:47.251Z,101250.50
2022-07-27T13:55:15.673Z,101242.00
2022-07-27T13:57:42.621Z,101238.53
2022-07-27T14:00:10.212Z,101230.50
2022-07-27T14:02:36.842Z,101231.31
2022-07-27T14:05:05.844Z,101225.44
2022-07-27T14:07:33.132Z,101239.53
2022-07-27T14:10:18.093Z,101233.72
2022-07-27T14:12:44.600Z,101227.03
2022-07-27T14:15:11.491Z,101227.69
2022-07-27T14:17:37.974Z,101231.34
2022-07-27T14:20:06.015Z,101232.31
2022-07-27T14:22:32.575Z,101232.75
2022-07-27T14:24:59.037Z,101227.31
2022-07-27T14:27:36.461Z,101220.59
2022-07-27T14:30:08.963Z,101219.03
2022-07-27T14:32:35.964Z,101220.28
2022-07-27T14:35:02.994Z,101214.09
2022-07-27T14:37:29.486Z,101211.03
2022-07-27T14:39:56.495Z,101204.09
2022-07-27T14:42:24.787Z,101200.56
2022-07-27T14:44:51.675Z,101198.63
2022-07-27T14:47:19.325Z,101196.69
2022-07-27T14:49:46.192Z,101197.78
2022-07-27T14:52:17.546Z,101201.56
2022-07-27T14:54:46.769Z,101186.09
2022-07-27T14:57:14.464Z,101190.59
2022-07-27T14:59:41.156Z,101190.00
2022-07-27T15:02:07.818Z,101187.63
2022-07-27T15:04:34.362Z,101184.09
2022-07-27T15:07:02.142Z,101182.34
2022-07-27T15:09:30.288Z,101186.16
2022-07-27T15:11:57.930Z,101187.53
2022-07-27T15:14:24.553Z,101183.94
2022-07-27T15:16:51.702Z,101190.53
2022-07-27T15:19:18.183Z,101187.91
2022-07-27T15:21:44.762Z,101190.56
2022-07-27T15:24:11.255Z,101193.31
2022-07-27T15:26:37.701Z,101194.44
2022-07-27T15:29:04.345Z,101184.09
2022-07-27T15:31:31.076Z,101173.56
2022-07-27T15:33:57.874Z,101180.00
2022-07-27T15:36:31.900Z,101171.56
2022-07-27T15:39:01.162Z,101165.88
2022-07-27T15:41:27.829Z,101168.44
2022-07-27T15:43:55.339Z,101172.69
2022-07-27T15:46:27.453Z,101163.19
2022-07-27T15:48:55.023Z,101157.59
2022-07-27T15:51:21.568Z,101155.56
2022-07-27T15:53:48.064Z,101161.03
2022-07-27T15:56:14.565Z,101162.25
2022-07-27T15:58:41.061Z,101155.63
2022-07-27T16:01:08.500Z,101148.25
2022-07-27T16:03:38.736Z,101142.75
2022-07-27T16:06:05.395Z,101139.31
2022-07-27T16:08:31.905Z,101134.25
2022-07-27T16:10:58.938Z,101141.63
2022-07-27T16:13:25.925Z,101126.94
2022-07-27T16:16:11.873Z,101128.31
2022-07-27T16:18:39.198Z,101128.97
2022-07-27T16:21:06.448Z,101114.59
2022-07-27T16:23:33.018Z,101111.63
2022-07-27T16:26:04.907Z,101115.00
2022-07-27T16:28:33.753Z,101122.44
2022-07-27T16:31:00.676Z,101118.84
2022-07-27T16:33:27.200Z,101124.81
2022-07-27T16:35:53.722Z,101120.84
2022-07-27T16:38:20.213Z,101128.22
2022-07-27T16:40:46.692Z,101115.25
2022-07-27T16:43:13.183Z,101119.00
2022-07-27T16:45:39.636Z,101119.41
2022-07-27T16:48:06.487Z,101125.13
2022-07-27T16:50:33.103Z,101127.44
2022-07-27T16:53:01.258Z,101128.56
2022-07-27T16:55:27.992Z,101121.97
2022-07-27T16:57:55.814Z,101130.09
2022-07-27T17:00:22.356Z,101122.09
2022-07-27T17:02:49.011Z,101123.53
2022-07-27T17:05:15.735Z,101118.75
2022-07-27T17:07:42.860Z,101120.34
2022-07-27T17:10:10.167Z,101131.34
2022-07-27T17:12:39.043Z,101121.53
2022-07-27T17:15:06.824Z,101131.03
2022-07-27T17:17:33.526Z,101118.66
2022-07-27T17:20:00.028Z,101120.66
2022-07-27T17:22:26.587Z,101130.28
2022-07-27T17:24:53.118Z,101123.16
2022-07-27T17:27:19.584Z,101119.22
2022-07-27T17:29:46.167Z,101119.41
2022-07-27T17:32:13.873Z,101118.63
2022-07-27T17:34:41.735Z,101123.97
2022-07-27T17:37:08.240Z,101119.41
2022-07-27T17:39:35.335Z,101124.63
2022-07-27T17:42:02.382Z,101134.47
2022-07-27T17:44:28.936Z,101127.38
2022-07-27T17:46:55.576Z,101127.25
2022-07-27T17:49:22.197Z,101122.56
2022-07-27T17:51:48.742Z,101113.44
2022-07-27T17:54:15.284Z,101118.31
2022-07-27T17:56:41.784Z,101124.16
2022-07-27T17:59:34.666Z,101121.84
2022-07-27T18:01:56.481Z,101123.94
2022-07-27T18:04:23.207Z,101129.69
2022-07-27T18:06:49.789Z,101125.59
2022-07-27T18:09:17.201Z,101126.06
2022-07-27T18:11:44.503Z,101133.47
2022-07-27T18:14:11.033Z,101123.16
2022-07-27T18:16:40.673Z,101128.66
2022-07-27T18:19:08.249Z,101130.63
2022-07-27T18:21:35.904Z,101137.16
2022-07-27T18:24:04.169Z,101133.97
2022-07-27T18:26:31.012Z,101128.28
2022-07-27T18:28:57.719Z,101125.78
2022-07-27T18:31:24.857Z,101132.28
2022-07-27T18:33:54.266Z,101135.03
2022-07-27T18:36:21.249Z,101131.59
2022-07-27T18:38:49.724Z,101125.84
2022-07-27T18:41:17.601Z,101124.53
2022-07-27T18:43:51.011Z,101131.69
2022-07-27T18:46:22.683Z,101122.00
2022-07-27T18:48:50.204Z,101125.84
2022-07-27T18:51:17.316Z,101121.13
2022-07-27T18:53:44.965Z,101127.78
2022-07-27T18:56:12.093Z,101131.66
2022-07-27T18:58:38.783Z,101137.13
2022-07-27T19:01:05.320Z,101135.91
2022-07-27T19:03:32.177Z,101138.78
2022-07-27T19:05:59.118Z,101134.50
2022-07-27T19:08:25.705Z,101133.72
2022-07-27T19:10:52.938Z,101129.25
2022-07-27T19:13:19.634Z,101137.31
2022-07-27T19:15:46.178Z,101141.59
2022-07-27T19:18:12.802Z,101147.31
2022-07-27T19:20:39.411Z,101140.81
2022-07-27T19:23:07.103Z,101136.88
2022-07-27T19:25:34.115Z,101147.44
2022-07-27T19:28:01.589Z,101145.28
2022-07-27T19:30:28.204Z,101144.78
2022-07-27T19:32:54.824Z,101147.81
2022-07-27T19:35:21.386Z,101148.16
2022-07-27T19:37:47.867Z,101148.59
2022-07-27T19:40:42.911Z,101160.28
2022-07-27T19:43:02.433Z,101149.16
2022-07-27T19:45:28.954Z,101155.91
2022-07-27T19:47:55.725Z,101158.88
2022-07-27T19:50:26.178Z,101157.44
2022-07-27T19:52:52.974Z,101159.94
2022-07-27T19:55:19.646Z,101159.03
2022-07-27T19:57:46.285Z,101160.25
2022-07-27T20:00:13.670Z,101162.59
2022-07-27T20:02:40.341Z,101162.59
2022-07-27T20:05:07.717Z,101167.00
2022-07-27T20:07:34.499Z,101165.75
2022-07-27T20:10:01.043Z,101164.75
2022-07-27T20:12:27.530Z,101162.69
2022-07-27T20:14:54.021Z,101170.69
2022-07-27T20:17:20.547Z,101174.09
2022-07-27T20:19:47.109Z,101174.16
2022-07-27T20:22:13.737Z,101178.00
2022-07-27T20:24:40.264Z,101177.25
2022-07-27T20:27:06.831Z,101171.84
2022-07-27T20:29:33.421Z,101178.84
2022-07-27T20:31:59.981Z,101180.66
2022-07-27T20:34:26.498Z,101181.56
2022-07-27T20:36:54.028Z,101179.78
2022-07-27T20:39:20.963Z,101175.34
2022-07-27T20:41:47.576Z,101179.72
2022-07-27T20:44:14.125Z,101185.13
2022-07-27T20:46:40.580Z,101186.88
2022-07-27T20:49:07.221Z,101182.38
2022-07-27T20:51:33.845Z,101184.75
2022-07-27T20:54:00.545Z,101191.03
2022-07-27T20:56:27.030Z,101190.75
2022-07-27T20:58:53.525Z,101194.22
2022-07-27T21:01:20.108Z,101188.09
2022-07-27T21:03:46.665Z,101185.66
2022-07-27T21:06:13.200Z,101188.22
2022-07-27T21:08:45.930Z,101189.78
2022-07-27T21:11:13.512Z,101180.03
2022-07-27T21:13:40.349Z,101182.75
2022-07-27T21:16:06.923Z,101183.78
2022-07-27T21:18:33.797Z,101181.44
2022-07-27T21:21:00.406Z,101180.59
2022-07-27T21:23:45.682Z,101184.16
2022-07-27T21:26:12.200Z,101183.41
2022-07-27T21:28:41.983Z,101186.13
2022-07-27T21:31:08.758Z,101188.75
2022-07-27T21:33:39.521Z,101185.25
2022-07-27T21:36:07.076Z,101190.84
2022-07-27T21:38:33.571Z,101195.22
2022-07-27T21:41:00.189Z,101193.44
2022-07-27T21:43:26.787Z,101198.00
2022-07-27T21:45:53.366Z,101197.06
2022-07-27T21:48:19.923Z,101193.63
2022-07-27T21:50:46.390Z,101187.41
2022-07-27T21:53:12.869Z,101191.16
2022-07-27T21:55:40.874Z,101193.88
2022-07-27T21:58:08.301Z,101190.22
2022-07-27T22:00:34.880Z,101186.91
2022-07-27T22:03:01.455Z,101187.00
2022-07-27T22:05:27.972Z,101175.63
2022-07-27T22:07:54.470Z,101177.31
2022-07-27T22:10:21.077Z,101176.41
2022-07-27T22:12:47.567Z,101188.78
2022-07-27T22:15:14.073Z,101189.72
2022-07-27T22:17:49.938Z,101189.78
2022-07-27T22:20:17.905Z,101200.50
2022-07-27T22:22:44.473Z,101194.44
2022-07-27T22:25:10.977Z,101192.72
2022-07-27T22:27:37.519Z,101198.09
2022-07-27T22:30:04.896Z,101194.56
2022-07-27T22:32:31.468Z,101194.69
2022-07-27T22:34:57.933Z,101197.38
2022-07-27T22:37:24.418Z,101194.69
2022-07-27T22:39:50.978Z,101202.56
2022-07-27T22:42:17.566Z,101202.75
2022-07-27T22:44:44.037Z,101196.59
2022-07-27T22:47:11.012Z,101196.72
2022-07-27T22:49:38.243Z,101193.19
2022-07-27T22:52:08.203Z,101185.41
2022-07-27T22:54:36.651Z,101203.03
2022-07-27T22:57:06.803Z,101198.78
2022-07-27T22:59:34.862Z,101199.56
2022-07-27T23:02:02.080Z,101211.81
2022-07-27T23:04:28.712Z,101211.28
2022-07-27T23:06:55.496Z,101208.63
2022-07-27T23:09:23.129Z,101211.28
2022-07-27T23:11:50.160Z,101211.28
2022-07-27T23:14:17.089Z,101217.44
2022-07-27T23:16:44.653Z,101220.22
2022-07-27T23:19:11.386Z,101219.38
2022-07-27T23:21:39.396Z,101217.53
2022-07-27T23:24:06.964Z,101221.94
2022-07-27T23:26:33.685Z,101215.00
2022-07-27T23:29:00.407Z,101208.91
2022-07-27T23:31:27.034Z,101203.56
2022-07-27T23:33:53.686Z,101211.66
2022-07-27T23:36:20.198Z,101211.63
2022-07-27T23:38:46.769Z,101217.13
2022-07-27T23:41:13.474Z,101211.75
2022-07-27T23:43:39.955Z,101211.75
2022-07-27T23:46:06.745Z,101201.97
2022-07-27T23:48:33.484Z,101202.09
2022-07-27T23:51:00.087Z,101207.41
2022-07-27T23:53:28.352Z,101199.63
2022-07-27T23:55:54.822Z,101206.59
2022-07-27T23:58:21.329Z,101198.75
